sensor_id;sensor_type;location;lat;lon;timestamp;P1;durP1;ratioP1;P2;durP2;ratioP2
46407;SDS011;32110;45.724;21.276;2022-08-19T00:02:24;8.05;;;5.03;;
46407;SDS011;32110;45.724;21.276;2022-08-19T00:04:50;15.52;;;5.38;;
46407;SDS011;32110;45.724;21.276;2022-08-19T00:07:18;11.80;;;5.50;;
46407;SDS011;32110;45.724;21.276;2022-08-19T00:09:44;8.45;;;5.40;;
46407;SDS011;32110;45.724;21.276;2022-08-19T00:12:10;12.38;;;5.43;;
46407;SDS011;32110;45.724;21.276;2022-08-19T00:14:36;10.52;;;5.80;;
46407;SDS011;32110;45.724;21.276;2022-08-19T00:17:03;9.43;;;5.00;;
46407;SDS011;32110;45.724;21.276;2022-08-19T00:19:31;8.00;;;5.32;;
46407;SDS011;32110;45.724;21.276;2022-08-19T00:21:58;9.45;;;6.53;;
46407;SDS011;32110;45.724;21.276;2022-08-19T00:24:24;10.40;;;5.63;;
46407;SDS011;32110;45.724;21.276;2022-08-19T00:26:49;8.43;;;5.65;;
46407;SDS011;32110;45.724;21.276;2022-08-19T00:29:16;7.65;;;5.20;;
46407;SDS011;32110;45.724;21.276;2022-08-19T00:31:43;8.88;;;4.72;;
46407;SDS011;32110;45.724;21.276;2022-08-19T00:34:10;8.50;;;5.18;;
46407;SDS011;32110;45.724;21.276;2022-08-19T00:36:37;8.48;;;5.50;;
46407;SDS011;32110;45.724;21.276;2022-08-19T00:39:02;7.13;;;5.20;;
46407;SDS011;32110;45.724;21.276;2022-08-19T00:41:28;6.93;;;5.10;;
46407;SDS011;32110;45.724;21.276;2022-08-19T00:44:00;7.05;;;5.07;;
46407;SDS011;32110;45.724;21.276;2022-08-19T00:46:36;9.68;;;5.32;;
46407;SDS011;32110;45.724;21.276;2022-08-19T00:49:06;8.82;;;5.05;;
46407;SDS011;32110;45.724;21.276;2022-08-19T00:51:45;8.50;;;4.95;;
46407;SDS011;32110;45.724;21.276;2022-08-19T00:54:13;6.05;;;4.97;;
46407;SDS011;32110;45.724;21.276;2022-08-19T00:56:40;10.07;;;5.07;;
46407;SDS011;32110;45.724;21.276;2022-08-19T00:59:06;9.45;;;5.50;;
46407;SDS011;32110;45.724;21.276;2022-08-19T01:01:37;5.97;;;4.97;;
46407;SDS011;32110;45.724;21.276;2022-08-19T01:04:04;8.70;;;5.30;;
46407;SDS011;32110;45.724;21.276;2022-08-19T01:06:30;7.35;;;5.18;;
46407;SDS011;32110;45.724;21.276;2022-08-19T01:08:57;6.72;;;5.57;;
46407;SDS011;32110;45.724;21.276;2022-08-19T01:11:23;7.95;;;5.00;;
46407;SDS011;32110;45.724;21.276;2022-08-19T01:13:49;7.72;;;5.20;;
46407;SDS011;32110;45.724;21.276;2022-08-19T01:16:17;9.45;;;5.32;;
46407;SDS011;32110;45.724;21.276;2022-08-19T01:18:45;6.70;;;4.55;;
46407;SDS011;32110;45.724;21.276;2022-08-19T01:24:19;8.88;;;5.50;;
46407;SDS011;32110;45.724;21.276;2022-08-19T01:26:44;7.47;;;5.45;;
46407;SDS011;32110;45.724;21.276;2022-08-19T01:29:10;9.75;;;5.55;;
46407;SDS011;32110;45.724;21.276;2022-08-19T01:31:36;11.07;;;5.80;;
46407;SDS011;32110;45.724;21.276;2022-08-19T01:34:03;9.95;;;5.60;;
46407;SDS011;32110;45.724;21.276;2022-08-19T01:36:30;13.25;;;5.90;;
46407;SDS011;32110;45.724;21.276;2022-08-19T01:38:57;6.72;;;5.43;;
46407;SDS011;32110;45.724;21.276;2022-08-19T01:41:23;8.85;;;5.80;;
46407;SDS011;32110;45.724;21.276;2022-08-19T01:43:49;9.82;;;5.30;;
46407;SDS011;32110;45.724;21.276;2022-08-19T01:46:15;9.88;;;5.75;;
46407;SDS011;32110;45.724;21.276;2022-08-19T01:48:42;7.72;;;5.63;;
46407;SDS011;32110;45.724;21.276;2022-08-19T01:51:08;10.00;;;6.00;;
46407;SDS011;32110;45.724;21.276;2022-08-19T01:53:35;11.05;;;5.80;;
46407;SDS011;32110;45.724;21.276;2022-08-19T01:56:01;8.65;;;5.75;;
46407;SDS011;32110;45.724;21.276;2022-08-19T01:58:29;8.02;;;5.75;;
46407;SDS011;32110;45.724;21.276;2022-08-19T02:00:57;8.23;;;5.30;;
46407;SDS011;32110;45.724;21.276;2022-08-19T02:03:24;5.70;;;5.10;;
46407;SDS011;32110;45.724;21.276;2022-08-19T02:05:53;12.10;;;5.45;;
46407;SDS011;32110;45.724;21.276;2022-08-19T02:10:44;14.67;;;5.73;;
46407;SDS011;32110;45.724;21.276;2022-08-19T02:13:10;10.20;;;5.30;;
46407;SDS011;32110;45.724;21.276;2022-08-19T02:15:38;11.75;;;5.43;;
46407;SDS011;32110;45.724;21.276;2022-08-19T02:18:03;8.30;;;5.32;;
46407;SDS011;32110;45.724;21.276;2022-08-19T02:20:29;9.48;;;5.38;;
46407;SDS011;32110;45.724;21.276;2022-08-19T02:22:54;9.23;;;5.38;;
46407;SDS011;32110;45.724;21.276;2022-08-19T02:25:19;7.78;;;5.68;;
46407;SDS011;32110;45.724;21.276;2022-08-19T02:27:45;7.68;;;5.15;;
46407;SDS011;32110;45.724;21.276;2022-08-19T02:30:13;14.98;;;6.18;;
46407;SDS011;32110;45.724;21.276;2022-08-19T02:32:41;7.47;;;5.95;;
46407;SDS011;32110;45.724;21.276;2022-08-19T02:35:07;9.65;;;5.88;;
46407;SDS011;32110;45.724;21.276;2022-08-19T02:37:33;7.55;;;5.20;;
46407;SDS011;32110;45.724;21.276;2022-08-19T02:40:17;8.23;;;5.15;;
46407;SDS011;32110;45.724;21.276;2022-08-19T02:42:43;8.13;;;5.78;;
46407;SDS011;32110;45.724;21.276;2022-08-19T02:45:08;9.63;;;5.50;;
46407;SDS011;32110;45.724;21.276;2022-08-19T02:47:34;16.00;;;5.88;;
46407;SDS011;32110;45.724;21.276;2022-08-19T02:50:00;8.15;;;5.10;;
46407;SDS011;32110;45.724;21.276;2022-08-19T02:52:27;9.10;;;5.40;;
46407;SDS011;32110;45.724;21.276;2022-08-19T02:54:53;10.00;;;5.93;;
46407;SDS011;32110;45.724;21.276;2022-08-19T02:57:18;10.90;;;5.40;;
46407;SDS011;32110;45.724;21.276;2022-08-19T02:59:44;8.60;;;5.80;;
46407;SDS011;32110;45.724;21.276;2022-08-19T03:02:09;9.67;;;5.40;;
46407;SDS011;32110;45.724;21.276;2022-08-19T03:04:34;8.55;;;5.95;;
46407;SDS011;32110;45.724;21.276;2022-08-19T03:07:00;9.98;;;5.85;;
46407;SDS011;32110;45.724;21.276;2022-08-19T03:09:25;7.70;;;5.55;;
46407;SDS011;32110;45.724;21.276;2022-08-19T03:11:51;11.15;;;5.70;;
46407;SDS011;32110;45.724;21.276;2022-08-19T03:14:16;10.10;;;5.68;;
46407;SDS011;32110;45.724;21.276;2022-08-19T03:16:47;7.38;;;5.85;;
46407;SDS011;32110;45.724;21.276;2022-08-19T03:19:15;7.30;;;5.82;;
46407;SDS011;32110;45.724;21.276;2022-08-19T03:21:42;8.60;;;5.80;;
46407;SDS011;32110;45.724;21.276;2022-08-19T03:24:09;8.45;;;5.78;;
46407;SDS011;32110;45.724;21.276;2022-08-19T03:26:38;10.43;;;5.68;;
46407;SDS011;32110;45.724;21.276;2022-08-19T03:29:05;12.90;;;5.70;;
46407;SDS011;32110;45.724;21.276;2022-08-19T03:31:30;8.05;;;6.13;;
46407;SDS011;32110;45.724;21.276;2022-08-19T03:33:56;8.55;;;6.03;;
46407;SDS011;32110;45.724;21.276;2022-08-19T03:36:23;7.80;;;5.70;;
46407;SDS011;32110;45.724;21.276;2022-08-19T03:38:55;7.88;;;5.97;;
46407;SDS011;32110;45.724;21.276;2022-08-19T03:41:26;11.95;;;6.15;;
46407;SDS011;32110;45.724;21.276;2022-08-19T03:43:55;6.90;;;5.72;;
46407;SDS011;32110;45.724;21.276;2022-08-19T03:46:22;11.55;;;6.22;;
46407;SDS011;32110;45.724;21.276;2022-08-19T03:48:52;13.55;;;6.13;;
46407;SDS011;32110;45.724;21.276;2022-08-19T03:51:30;9.30;;;5.70;;
46407;SDS011;32110;45.724;21.276;2022-08-19T03:53:58;7.90;;;5.90;;
46407;SDS011;32110;45.724;21.276;2022-08-19T03:56:26;11.52;;;6.03;;
46407;SDS011;32110;45.724;21.276;2022-08-19T03:58:53;9.32;;;6.07;;
46407;SDS011;32110;45.724;21.276;2022-08-19T04:01:21;9.75;;;6.32;;
46407;SDS011;32110;45.724;21.276;2022-08-19T04:03:48;7.82;;;5.90;;
46407;SDS011;32110;45.724;21.276;2022-08-19T04:06:17;8.77;;;6.65;;
46407;SDS011;32110;45.724;21.276;2022-08-19T04:08:46;9.05;;;6.35;;
46407;SDS011;32110;45.724;21.276;2022-08-19T04:11:14;13.40;;;6.85;;
46407;SDS011;32110;45.724;21.276;2022-08-19T04:13:42;13.27;;;6.75;;
46407;SDS011;32110;45.724;21.276;2022-08-19T04:16:09;10.50;;;6.63;;
46407;SDS011;32110;45.724;21.276;2022-08-19T04:18:36;8.40;;;6.47;;
46407;SDS011;32110;45.724;21.276;2022-08-19T04:21:03;11.65;;;7.05;;
46407;SDS011;32110;45.724;21.276;2022-08-19T04:23:29;13.05;;;6.72;;
46407;SDS011;32110;45.724;21.276;2022-08-19T04:25:56;11.65;;;6.60;;
46407;SDS011;32110;45.724;21.276;2022-08-19T04:28:21;14.55;;;6.85;;
46407;SDS011;32110;45.724;21.276;2022-08-19T04:30:48;10.57;;;7.30;;
46407;SDS011;32110;45.724;21.276;2022-08-19T04:33:17;16.13;;;7.18;;
46407;SDS011;32110;45.724;21.276;2022-08-19T04:35:45;10.57;;;6.88;;
46407;SDS011;32110;45.724;21.276;2022-08-19T04:38:13;11.70;;;6.53;;
46407;SDS011;32110;45.724;21.276;2022-08-19T04:40:41;11.00;;;7.30;;
46407;SDS011;32110;45.724;21.276;2022-08-19T04:43:30;15.88;;;6.78;;
46407;SDS011;32110;45.724;21.276;2022-08-19T04:45:56;11.60;;;7.10;;
46407;SDS011;32110;45.724;21.276;2022-08-19T04:48:22;14.00;;;6.57;;
46407;SDS011;32110;45.724;21.276;2022-08-19T04:50:55;13.80;;;6.65;;
46407;SDS011;32110;45.724;21.276;2022-08-19T04:53:25;14.40;;;6.78;;
46407;SDS011;32110;45.724;21.276;2022-08-19T04:58:24;8.98;;;6.80;;
46407;SDS011;32110;45.724;21.276;2022-08-19T05:00:51;13.05;;;6.72;;
46407;SDS011;32110;45.724;21.276;2022-08-19T05:03:17;17.70;;;6.28;;
46407;SDS011;32110;45.724;21.276;2022-08-19T05:05:43;16.02;;;6.50;;
46407;SDS011;32110;45.724;21.276;2022-08-19T05:08:11;13.63;;;6.25;;
46407;SDS011;32110;45.724;21.276;2022-08-19T05:10:44;12.45;;;7.32;;
46407;SDS011;32110;45.724;21.276;2022-08-19T05:13:12;10.98;;;6.40;;
46407;SDS011;32110;45.724;21.276;2022-08-19T05:15:38;15.43;;;6.60;;
46407;SDS011;32110;45.724;21.276;2022-08-19T05:18:03;11.82;;;5.75;;
46407;SDS011;32110;45.724;21.276;2022-08-19T05:20:47;9.25;;;6.00;;
46407;SDS011;32110;45.724;21.276;2022-08-19T05:23:31;13.20;;;6.53;;
46407;SDS011;32110;45.724;21.276;2022-08-19T05:25:56;11.90;;;6.10;;
46407;SDS011;32110;45.724;21.276;2022-08-19T05:28:22;18.30;;;6.53;;
46407;SDS011;32110;45.724;21.276;2022-08-19T05:30:47;12.77;;;6.28;;
46407;SDS011;32110;45.724;21.276;2022-08-19T05:33:15;13.60;;;6.70;;
46407;SDS011;32110;45.724;21.276;2022-08-19T05:35:41;17.38;;;7.00;;
46407;SDS011;32110;45.724;21.276;2022-08-19T05:38:07;20.80;;;6.63;;
46407;SDS011;32110;45.724;21.276;2022-08-19T05:40:34;11.82;;;6.78;;
46407;SDS011;32110;45.724;21.276;2022-08-19T05:43:01;12.07;;;6.78;;
46407;SDS011;32110;45.724;21.276;2022-08-19T05:45:28;15.23;;;6.90;;
46407;SDS011;32110;45.724;21.276;2022-08-19T05:47:53;10.65;;;6.70;;
46407;SDS011;32110;45.724;21.276;2022-08-19T05:50:19;12.45;;;6.65;;
46407;SDS011;32110;45.724;21.276;2022-08-19T05:52:45;12.55;;;6.55;;
46407;SDS011;32110;45.724;21.276;2022-08-19T05:55:10;19.85;;;7.38;;
46407;SDS011;32110;45.724;21.276;2022-08-19T05:57:36;14.20;;;7.13;;
46407;SDS011;32110;45.724;21.276;2022-08-19T06:00:02;16.40;;;6.73;;
46407;SDS011;32110;45.724;21.276;2022-08-19T06:02:33;11.57;;;6.72;;
46407;SDS011;32110;45.724;21.276;2022-08-19T06:05:00;15.05;;;7.07;;
46407;SDS011;32110;45.724;21.276;2022-08-19T06:07:27;12.73;;;6.65;;
46407;SDS011;32110;45.724;21.276;2022-08-19T06:09:53;14.00;;;7.05;;
46407;SDS011;32110;45.724;21.276;2022-08-19T06:12:19;11.25;;;6.40;;
46407;SDS011;32110;45.724;21.276;2022-08-19T06:14:44;9.63;;;6.63;;
46407;SDS011;32110;45.724;21.276;2022-08-19T06:17:10;10.75;;;6.22;;
46407;SDS011;32110;45.724;21.276;2022-08-19T06:19:36;11.32;;;6.45;;
46407;SDS011;32110;45.724;21.276;2022-08-19T06:22:02;13.60;;;6.28;;
46407;SDS011;32110;45.724;21.276;2022-08-19T06:24:29;11.88;;;6.15;;
46407;SDS011;32110;45.724;21.276;2022-08-19T06:26:55;12.40;;;6.53;;
46407;SDS011;32110;45.724;21.276;2022-08-19T06:29:22;17.42;;;6.72;;
46407;SDS011;32110;45.724;21.276;2022-08-19T06:31:51;13.38;;;6.68;;
46407;SDS011;32110;45.724;21.276;2022-08-19T06:34:18;10.45;;;6.38;;
46407;SDS011;32110;45.724;21.276;2022-08-19T06:36:46;16.27;;;6.97;;
46407;SDS011;32110;45.724;21.276;2022-08-19T06:41:45;10.60;;;5.88;;
46407;SDS011;32110;45.724;21.276;2022-08-19T06:46:38;15.38;;;6.38;;
46407;SDS011;32110;45.724;21.276;2022-08-19T06:49:05;12.48;;;6.07;;
46407;SDS011;32110;45.724;21.276;2022-08-19T06:51:31;17.85;;;6.10;;
46407;SDS011;32110;45.724;21.276;2022-08-19T06:53:57;10.32;;;5.97;;
46407;SDS011;32110;45.724;21.276;2022-08-19T06:56:25;12.55;;;6.45;;
46407;SDS011;32110;45.724;21.276;2022-08-19T06:59:21;9.70;;;6.13;;
46407;SDS011;32110;45.724;21.276;2022-08-19T07:01:47;12.77;;;6.20;;
46407;SDS011;32110;45.724;21.276;2022-08-19T07:04:16;15.68;;;7.07;;
46407;SDS011;32110;45.724;21.276;2022-08-19T07:06:43;10.10;;;6.38;;
46407;SDS011;32110;45.724;21.276;2022-08-19T07:09:10;11.73;;;6.20;;
46407;SDS011;32110;45.724;21.276;2022-08-19T07:11:44;12.00;;;5.82;;
46407;SDS011;32110;45.724;21.276;2022-08-19T07:14:11;20.52;;;6.45;;
46407;SDS011;32110;45.724;21.276;2022-08-19T07:16:37;22.45;;;6.50;;
46407;SDS011;32110;45.724;21.276;2022-08-19T07:19:02;14.45;;;6.40;;
46407;SDS011;32110;45.724;21.276;2022-08-19T07:21:28;10.88;;;6.28;;
46407;SDS011;32110;45.724;21.276;2022-08-19T07:23:54;14.68;;;6.80;;
46407;SDS011;32110;45.724;21.276;2022-08-19T07:26:28;11.98;;;6.10;;
46407;SDS011;32110;45.724;21.276;2022-08-19T07:28:58;8.85;;;6.15;;
46407;SDS011;32110;45.724;21.276;2022-08-19T07:31:25;11.35;;;5.97;;
46407;SDS011;32110;45.724;21.276;2022-08-19T07:33:53;16.25;;;6.65;;
46407;SDS011;32110;45.724;21.276;2022-08-19T07:36:22;13.05;;;5.82;;
46407;SDS011;32110;45.724;21.276;2022-08-19T07:38:54;10.93;;;5.50;;
46407;SDS011;32110;45.724;21.276;2022-08-19T07:41:23;13.63;;;5.63;;
46407;SDS011;32110;45.724;21.276;2022-08-19T07:43:50;9.57;;;5.70;;
46407;SDS011;32110;45.724;21.276;2022-08-19T07:46:16;8.63;;;6.07;;
46407;SDS011;32110;45.724;21.276;2022-08-19T07:48:43;11.75;;;5.28;;
46407;SDS011;32110;45.724;21.276;2022-08-19T07:51:12;12.30;;;5.32;;
46407;SDS011;32110;45.724;21.276;2022-08-19T07:53:40;10.43;;;5.80;;
46407;SDS011;32110;45.724;21.276;2022-08-19T07:56:06;15.30;;;5.60;;
46407;SDS011;32110;45.724;21.276;2022-08-19T07:58:32;9.02;;;5.63;;
46407;SDS011;32110;45.724;21.276;2022-08-19T08:00:59;9.47;;;5.40;;
46407;SDS011;32110;45.724;21.276;2022-08-19T08:03:26;10.73;;;5.80;;
46407;SDS011;32110;45.724;21.276;2022-08-19T08:06:11;7.88;;;5.30;;
46407;SDS011;32110;45.724;21.276;2022-08-19T08:08:56;10.25;;;5.30;;
46407;SDS011;32110;45.724;21.276;2022-08-19T08:11:42;9.80;;;5.35;;
46407;SDS011;32110;45.724;21.276;2022-08-19T08:14:14;12.77;;;4.95;;
46407;SDS011;32110;45.724;21.276;2022-08-19T08:16:44;15.10;;;5.22;;
46407;SDS011;32110;45.724;21.276;2022-08-19T08:19:10;12.02;;;5.20;;
46407;SDS011;32110;45.724;21.276;2022-08-19T08:21:39;7.68;;;5.10;;
46407;SDS011;32110;45.724;21.276;2022-08-19T08:24:05;12.43;;;5.25;;
46407;SDS011;32110;45.724;21.276;2022-08-19T08:26:31;6.60;;;4.63;;
46407;SDS011;32110;45.724;21.276;2022-08-19T08:28:56;27.23;;;5.55;;
46407;SDS011;32110;45.724;21.276;2022-08-19T08:31:21;13.88;;;5.22;;
46407;SDS011;32110;45.724;21.276;2022-08-19T08:33:48;14.85;;;5.32;;
46407;SDS011;32110;45.724;21.276;2022-08-19T08:36:14;7.55;;;4.72;;
46407;SDS011;32110;45.724;21.276;2022-08-19T08:38:40;11.15;;;5.15;;
46407;SDS011;32110;45.724;21.276;2022-08-19T08:44:11;12.10;;;4.90;;
46407;SDS011;32110;45.724;21.276;2022-08-19T08:46:42;12.02;;;5.32;;
46407;SDS011;32110;45.724;21.276;2022-08-19T08:52:11;9.13;;;4.30;;
46407;SDS011;32110;45.724;21.276;2022-08-19T08:54:44;12.40;;;4.70;;
46407;SDS011;32110;45.724;21.276;2022-08-19T08:57:18;8.60;;;4.75;;
46407;SDS011;32110;45.724;21.276;2022-08-19T08:59:48;10.18;;;5.05;;
46407;SDS011;32110;45.724;21.276;2022-08-19T09:02:18;8.93;;;4.88;;
46407;SDS011;32110;45.724;21.276;2022-08-19T09:04:44;7.15;;;4.35;;
46407;SDS011;32110;45.724;21.276;2022-08-19T09:09:56;9.43;;;4.63;;
46407;SDS011;32110;45.724;21.276;2022-08-19T09:12:36;11.70;;;4.15;;
46407;SDS011;32110;45.724;21.276;2022-08-19T09:15:12;6.07;;;4.72;;
46407;SDS011;32110;45.724;21.276;2022-08-19T09:17:39;11.02;;;5.00;;
46407;SDS011;32110;45.724;21.276;2022-08-19T09:22:47;11.00;;;4.60;;
46407;SDS011;32110;45.724;21.276;2022-08-19T09:25:15;10.68;;;4.60;;
46407;SDS011;32110;45.724;21.276;2022-08-19T09:30:10;12.10;;;5.15;;
46407;SDS011;32110;45.724;21.276;2022-08-19T09:32:38;12.27;;;5.03;;
46407;SDS011;32110;45.724;21.276;2022-08-19T09:35:06;13.32;;;4.80;;
46407;SDS011;32110;45.724;21.276;2022-08-19T09:37:32;9.40;;;5.50;;
46407;SDS011;32110;45.724;21.276;2022-08-19T09:39:58;11.98;;;5.10;;
46407;SDS011;32110;45.724;21.276;2022-08-19T09:42:23;6.85;;;4.88;;
46407;SDS011;32110;45.724;21.276;2022-08-19T09:44:49;8.05;;;5.15;;
46407;SDS011;32110;45.724;21.276;2022-08-19T09:47:14;5.85;;;4.50;;
46407;SDS011;32110;45.724;21.276;2022-08-19T09:49:40;11.70;;;4.93;;
46407;SDS011;32110;45.724;21.276;2022-08-19T09:52:07;6.28;;;4.80;;
46407;SDS011;32110;45.724;21.276;2022-08-19T09:54:35;13.10;;;5.30;;
46407;SDS011;32110;45.724;21.276;2022-08-19T09:57:01;9.45;;;5.20;;
46407;SDS011;32110;45.724;21.276;2022-08-19T09:59:27;11.63;;;4.65;;
46407;SDS011;32110;45.724;21.276;2022-08-19T10:01:53;8.38;;;4.65;;
46407;SDS011;32110;45.724;21.276;2022-08-19T10:04:18;10.00;;;5.25;;
46407;SDS011;32110;45.724;21.276;2022-08-19T10:06:46;13.30;;;5.03;;
46407;SDS011;32110;45.724;21.276;2022-08-19T10:09:14;7.75;;;5.03;;
46407;SDS011;32110;45.724;21.276;2022-08-19T10:11:42;10.02;;;5.20;;
46407;SDS011;32110;45.724;21.276;2022-08-19T10:14:11;6.80;;;5.00;;
46407;SDS011;32110;45.724;21.276;2022-08-19T10:16:37;8.95;;;4.50;;
46407;SDS011;32110;45.724;21.276;2022-08-19T10:19:04;11.90;;;4.95;;
46407;SDS011;32110;45.724;21.276;2022-08-19T10:21:30;6.80;;;4.72;;
46407;SDS011;32110;45.724;21.276;2022-08-19T10:23:58;8.88;;;4.80;;
46407;SDS011;32110;45.724;21.276;2022-08-19T10:26:30;9.40;;;4.70;;
46407;SDS011;32110;45.724;21.276;2022-08-19T10:29:02;9.30;;;4.63;;
46407;SDS011;32110;45.724;21.276;2022-08-19T10:31:31;11.90;;;4.85;;
46407;SDS011;32110;45.724;21.276;2022-08-19T10:33:58;8.80;;;4.90;;
46407;SDS011;32110;45.724;21.276;2022-08-19T10:36:34;7.93;;;4.70;;
46407;SDS011;32110;45.724;21.276;2022-08-19T10:39:03;10.98;;;4.70;;
46407;SDS011;32110;45.724;21.276;2022-08-19T10:41:32;14.20;;;4.95;;
46407;SDS011;32110;45.724;21.276;2022-08-19T10:44:01;9.27;;;4.28;;
46407;SDS011;32110;45.724;21.276;2022-08-19T10:46:36;8.10;;;4.63;;
46407;SDS011;32110;45.724;21.276;2022-08-19T10:49:06;12.80;;;4.50;;
46407;SDS011;32110;45.724;21.276;2022-08-19T10:51:33;12.98;;;4.80;;
46407;SDS011;32110;45.724;21.276;2022-08-19T10:54:17;7.53;;;4.32;;
46407;SDS011;32110;45.724;21.276;2022-08-19T10:56:44;12.35;;;4.57;;
46407;SDS011;32110;45.724;21.276;2022-08-19T11:01:49;7.05;;;3.72;;
46407;SDS011;32110;45.724;21.276;2022-08-19T11:04:16;10.32;;;4.22;;
46407;SDS011;32110;45.724;21.276;2022-08-19T11:06:43;8.02;;;3.50;;
46407;SDS011;32110;45.724;21.276;2022-08-19T11:09:12;10.70;;;4.18;;
46407;SDS011;32110;45.724;21.276;2022-08-19T11:11:45;11.82;;;4.35;;
46407;SDS011;32110;45.724;21.276;2022-08-19T11:14:13;12.43;;;4.72;;
46407;SDS011;32110;45.724;21.276;2022-08-19T11:16:46;10.98;;;4.30;;
46407;SDS011;32110;45.724;21.276;2022-08-19T11:19:13;11.27;;;4.68;;
46407;SDS011;32110;45.724;21.276;2022-08-19T11:21:42;12.88;;;4.10;;
46407;SDS011;32110;45.724;21.276;2022-08-19T11:24:13;9.38;;;4.55;;
46407;SDS011;32110;45.724;21.276;2022-08-19T11:26:42;13.05;;;4.07;;
46407;SDS011;32110;45.724;21.276;2022-08-19T11:29:09;12.77;;;4.20;;
46407;SDS011;32110;45.724;21.276;2022-08-19T11:31:38;11.52;;;4.55;;
46407;SDS011;32110;45.724;21.276;2022-08-19T11:34:07;7.50;;;4.03;;
46407;SDS011;32110;45.724;21.276;2022-08-19T11:36:37;7.35;;;3.80;;
46407;SDS011;32110;45.724;21.276;2022-08-19T11:39:05;12.23;;;4.32;;
46407;SDS011;32110;45.724;21.276;2022-08-19T11:41:32;7.77;;;3.90;;
46407;SDS011;32110;45.724;21.276;2022-08-19T11:43:58;11.48;;;4.50;;
46407;SDS011;32110;45.724;21.276;2022-08-19T11:46:24;15.23;;;4.53;;
46407;SDS011;32110;45.724;21.276;2022-08-19T11:48:54;8.43;;;4.15;;
46407;SDS011;32110;45.724;21.276;2022-08-19T11:51:21;18.00;;;4.18;;
46407;SDS011;32110;45.724;21.276;2022-08-19T11:53:49;6.82;;;3.70;;
46407;SDS011;32110;45.724;21.276;2022-08-19T11:56:16;8.32;;;3.97;;
46407;SDS011;32110;45.724;21.276;2022-08-19T11:58:42;8.73;;;3.78;;
46407;SDS011;32110;45.724;21.276;2022-08-19T12:01:09;7.78;;;3.63;;
46407;SDS011;32110;45.724;21.276;2022-08-19T12:03:36;8.32;;;3.80;;
46407;SDS011;32110;45.724;21.276;2022-08-19T12:06:04;6.15;;;3.33;;
46407;SDS011;32110;45.724;21.276;2022-08-19T12:08:30;10.10;;;4.05;;
46407;SDS011;32110;45.724;21.276;2022-08-19T12:10:56;9.02;;;4.05;;
46407;SDS011;32110;45.724;21.276;2022-08-19T12:13:22;8.65;;;3.53;;
46407;SDS011;32110;45.724;21.276;2022-08-19T12:15:47;7.88;;;3.70;;
46407;SDS011;32110;45.724;21.276;2022-08-19T12:18:13;8.82;;;3.72;;
46407;SDS011;32110;45.724;21.276;2022-08-19T12:20:39;7.38;;;3.70;;
46407;SDS011;32110;45.724;21.276;2022-08-19T12:23:06;7.72;;;3.83;;
46407;SDS011;32110;45.724;21.276;2022-08-19T12:28:00;7.90;;;3.67;;
46407;SDS011;32110;45.724;21.276;2022-08-19T12:30:26;8.57;;;3.45;;
46407;SDS011;32110;45.724;21.276;2022-08-19T12:32:52;8.32;;;3.92;;
46407;SDS011;32110;45.724;21.276;2022-08-19T12:35:18;10.73;;;3.80;;
46407;SDS011;32110;45.724;21.276;2022-08-19T12:37:45;7.70;;;4.07;;
46407;SDS011;32110;45.724;21.276;2022-08-19T12:40:13;9.73;;;4.03;;
46407;SDS011;32110;45.724;21.276;2022-08-19T12:42:40;8.43;;;3.97;;
46407;SDS011;32110;45.724;21.276;2022-08-19T12:45:11;6.78;;;3.88;;
46407;SDS011;32110;45.724;21.276;2022-08-19T12:47:38;9.13;;;4.00;;
46407;SDS011;32110;45.724;21.276;2022-08-19T12:50:04;19.33;;;4.00;;
46407;SDS011;32110;45.724;21.276;2022-08-19T12:52:33;12.43;;;3.83;;
46407;SDS011;32110;45.724;21.276;2022-08-19T12:55:02;7.15;;;3.42;;
46407;SDS011;32110;45.724;21.276;2022-08-19T12:57:30;8.27;;;3.80;;
46407;SDS011;32110;45.724;21.276;2022-08-19T12:59:58;16.10;;;4.45;;
46407;SDS011;32110;45.724;21.276;2022-08-19T13:02:46;10.75;;;4.05;;
46407;SDS011;32110;45.724;21.276;2022-08-19T13:05:15;13.82;;;4.05;;
46407;SDS011;32110;45.724;21.276;2022-08-19T13:07:45;11.23;;;3.90;;
46407;SDS011;32110;45.724;21.276;2022-08-19T13:10:11;11.43;;;4.38;;
46407;SDS011;32110;45.724;21.276;2022-08-19T13:12:57;8.93;;;3.88;;
46407;SDS011;32110;45.724;21.276;2022-08-19T13:15:44;10.70;;;3.85;;
46407;SDS011;32110;45.724;21.276;2022-08-19T13:18:30;8.82;;;3.60;;
46407;SDS011;32110;45.724;21.276;2022-08-19T13:20:56;11.05;;;4.00;;
46407;SDS011;32110;45.724;21.276;2022-08-19T13:23:22;7.18;;;3.80;;
46407;SDS011;32110;45.724;21.276;2022-08-19T13:26:00;10.98;;;3.58;;
46407;SDS011;32110;45.724;21.276;2022-08-19T13:28:29;10.55;;;3.97;;
46407;SDS011;32110;45.724;21.276;2022-08-19T13:31:16;9.48;;;3.95;;
46407;SDS011;32110;45.724;21.276;2022-08-19T13:34:03;7.88;;;3.33;;
46407;SDS011;32110;45.724;21.276;2022-08-19T13:36:29;16.10;;;4.47;;
46407;SDS011;32110;45.724;21.276;2022-08-19T13:38:55;8.25;;;3.70;;
46407;SDS011;32110;45.724;21.276;2022-08-19T13:41:21;7.95;;;4.00;;
46407;SDS011;32110;45.724;21.276;2022-08-19T13:43:47;6.30;;;3.70;;
46407;SDS011;32110;45.724;21.276;2022-08-19T13:46:13;10.65;;;4.10;;
46407;SDS011;32110;45.724;21.276;2022-08-19T13:48:39;7.07;;;3.45;;
46407;SDS011;32110;45.724;21.276;2022-08-19T13:51:06;11.38;;;3.83;;
46407;SDS011;32110;45.724;21.276;2022-08-19T13:53:34;5.90;;;3.63;;
46407;SDS011;32110;45.724;21.276;2022-08-19T13:56:06;8.65;;;3.80;;
46407;SDS011;32110;45.724;21.276;2022-08-19T13:58:32;11.55;;;4.03;;
46407;SDS011;32110;45.724;21.276;2022-08-19T14:00:58;7.38;;;3.85;;
46407;SDS011;32110;45.724;21.276;2022-08-19T14:03:24;7.63;;;3.90;;
46407;SDS011;32110;45.724;21.276;2022-08-19T14:05:50;13.18;;;4.10;;
46407;SDS011;32110;45.724;21.276;2022-08-19T14:08:15;6.75;;;3.70;;
46407;SDS011;32110;45.724;21.276;2022-08-19T14:10:42;10.73;;;4.05;;
46407;SDS011;32110;45.724;21.276;2022-08-19T14:13:10;8.25;;;4.00;;
46407;SDS011;32110;45.724;21.276;2022-08-19T14:15:38;7.68;;;3.90;;
46407;SDS011;32110;45.724;21.276;2022-08-19T14:18:04;11.45;;;4.40;;
46407;SDS011;32110;45.724;21.276;2022-08-19T14:20:30;7.28;;;3.80;;
46407;SDS011;32110;45.724;21.276;2022-08-19T14:22:55;7.60;;;3.92;;
46407;SDS011;32110;45.724;21.276;2022-08-19T14:25:22;8.15;;;4.00;;
46407;SDS011;32110;45.724;21.276;2022-08-19T14:27:50;11.38;;;3.38;;
46407;SDS011;32110;45.724;21.276;2022-08-19T14:30:17;7.07;;;3.58;;
46407;SDS011;32110;45.724;21.276;2022-08-19T14:32:45;7.32;;;3.88;;
46407;SDS011;32110;45.724;21.276;2022-08-19T14:35:12;10.43;;;3.80;;
46407;SDS011;32110;45.724;21.276;2022-08-19T14:40:05;6.88;;;3.58;;
46407;SDS011;32110;45.724;21.276;2022-08-19T14:42:31;10.10;;;3.50;;
46407;SDS011;32110;45.724;21.276;2022-08-19T14:44:58;12.05;;;3.83;;
46407;SDS011;32110;45.724;21.276;2022-08-19T14:47:24;18.42;;;3.70;;
46407;SDS011;32110;45.724;21.276;2022-08-19T14:49:49;9.88;;;3.42;;
46407;SDS011;32110;45.724;21.276;2022-08-19T14:52:15;6.13;;;3.50;;
46407;SDS011;32110;45.724;21.276;2022-08-19T14:54:40;8.13;;;3.30;;
46407;SDS011;32110;45.724;21.276;2022-08-19T14:57:06;6.32;;;3.95;;
46407;SDS011;32110;45.724;21.276;2022-08-19T14:59:32;9.05;;;3.70;;
46407;SDS011;32110;45.724;21.276;2022-08-19T15:01:59;8.82;;;3.47;;
46407;SDS011;32110;45.724;21.276;2022-08-19T15:04:25;11.52;;;3.85;;
46407;SDS011;32110;45.724;21.276;2022-08-19T15:06:50;5.20;;;3.25;;
46407;SDS011;32110;45.724;21.276;2022-08-19T15:09:16;8.48;;;3.65;;